Time;durP1;ratioP1;P1;durP2;ratioP2;P2;SDS_P1;SDS_P2;PMS_P1;PMS_P2;Temp;Humidity;BMP_temperature;BMP_pressure;BME280_temperature;BME280_humidity;BME280_pressure;Samples;Min_cycle;Max_cycle;Signal;HPM_P1;HPM_P2
2023/04/13 00:00:26;;;;;;;2.30;0.90;;;;;;;;;;5100079;28;20257;-71
2023/04/13 00:02:54;;;;;;;3.03;0.90;;;;;;;;;;5099871;28;20689;-71
2023/04/13 00:05:23;;;;;;;2.27;1.33;;;;;;;;;;5099618;28;20300;-71
2023/04/13 00:07:52;;;;;;;3.13;0.80;;;;;;;;;;5100157;28;20288;-71
2023/04/13 00:10:20;;;;;;;3.27;1.10;;;;;;;;;;5099599;28;20715;-71
2023/04/13 00:12:48;;;;;;;1.37;0.80;;;;;;;;;;5099851;28;20209;-71
2023/04/13 00:15:18;;;;;;;1.97;0.77;;;;;;;;;;5099730;28;20240;-72
2023/04/13 00:17:47;;;;;;;1.53;0.60;;;;;;;;;;5099597;28;20237;-72
2023/04/13 00:20:16;;;;;;;1.50;0.87;;;;;;;;;;5099319;28;20213;-72
2023/04/13 00:22:45;;;;;;;1.63;1.07;;;;;;;;;;5099880;28;20201;-72
2023/04/13 00:25:14;;;;;;;3.40;0.87;;;;;;;;;;5099458;28;20668;-73
2023/04/13 00:27:42;;;;;;;1.30;0.67;;;;;;;;;;5099455;28;20565;-72
2023/04/13 00:30:12;;;;;;;1.23;0.77;;;;;;;;;;5099579;28;20255;-72
2023/04/13 00:32:42;;;;;;;3.40;0.87;;;;;;;;;;5099534;28;20288;-72
2023/04/13 00:35:10;;;;;;;2.60;0.67;;;;;;;;;;5099413;28;20288;-72
2023/04/13 00:37:41;;;;;;;2.73;0.80;;;;;;;;;;5099213;28;20237;-72
2023/04/13 00:40:10;;;;;;;2.47;1.00;;;;;;;;;;5099437;28;20228;-73
2023/04/13 00:42:38;;;;;;;2.57;1.10;;;;;;;;;;5098154;28;20201;-73
2023/04/13 00:45:07;;;;;;;0.63;0.63;;;;;;;;;;5099449;28;20244;-73
2023/04/13 00:47:36;;;;;;;4.00;0.90;;;;;;;;;;5098955;28;20688;-73
2023/04/13 00:50:06;;;;;;;1.37;0.80;;;;;;;;;;5098762;28;20225;-74
2023/04/13 00:52:37;;;;;;;3.03;0.70;;;;;;;;;;5099026;28;20232;-72
2023/04/13 00:55:06;;;;;;;3.60;0.90;;;;;;;;;;5099619;28;20205;-72
2023/04/13 00:57:35;;;;;;;2.23;0.80;;;;;;;;;;5099087;28;20244;-72
2023/04/13 01:00:08;;;;;;;1.83;0.70;;;;;;;;;;5099048;28;20233;-72
2023/04/13 01:02:40;;;;;;;8.17;1.17;;;;;;;;;;5098783;28;20673;-73
2023/04/13 01:05:14;;;;;;;3.17;1.13;;;;;;;;;;5098742;28;20201;-73
2023/04/13 01:07:47;;;;;;;3.83;0.90;;;;;;;;;;5099005;28;20205;-72
2023/04/13 01:10:18;;;;;;;3.03;1.13;;;;;;;;;;5098056;28;20236;-72
2023/04/13 01:12:49;;;;;;;1.60;0.90;;;;;;;;;;5099002;28;20261;-73
2023/04/13 01:15:18;;;;;;;2.57;0.90;;;;;;;;;;5098378;28;20244;-73
2023/04/13 01:17:51;;;;;;;2.80;0.90;;;;;;;;;;5098558;28;20209;-73
2023/04/13 01:20:21;;;;;;;2.63;0.80;;;;;;;;;;5098232;28;20227;-72
2023/04/13 01:22:53;;;;;;;3.13;1.10;;;;;;;;;;5098720;28;20197;-73
2023/04/13 01:25:29;;;;;;;1.43;0.80;;;;;;;;;;5098719;28;20205;-72
2023/04/13 01:28:00;;;;;;;3.03;1.00;;;;;;;;;;5098339;28;20205;-73
2023/04/13 01:30:31;;;;;;;4.17;1.03;;;;;;;;;;5098265;28;20257;-72
2023/04/13 01:33:00;;;;;;;3.37;1.20;;;;;;;;;;5098305;28;20313;-72
2023/04/13 01:35:29;;;;;;;2.97;0.93;;;;;;;;;;5098297;28;20300;-73
2023/04/13 01:38:00;;;;;;;1.30;0.80;;;;;;;;;;5098519;28;20232;-73
2023/04/13 01:40:30;;;;;;;1.77;0.93;;;;;;;;;;5098336;28;20236;-73
2023/04/13 01:42:59;;;;;;;2.13;0.90;;;;;;;;;;5096596;28;20240;-73
2023/04/13 01:45:31;;;;;;;5.30;2.43;;;;;;;;;;5098108;28;20699;-73
2023/04/13 01:48:03;;;;;;;7.80;2.30;;;;;;;;;;5097969;28;20240;-72
2023/04/13 01:50:33;;;;;;;5.00;2.53;;;;;;;;;;5097862;28;20225;-72
2023/04/13 01:53:06;;;;;;;6.63;2.90;;;;;;;;;;5098227;28;20649;-71
2023/04/13 01:55:37;;;;;;;6.27;2.67;;;;;;;;;;5097814;28;20228;-71
2023/04/13 01:58:06;;;;;;;3.50;1.90;;;;;;;;;;5098273;28;20233;-71
2023/04/13 02:00:35;;;;;;;4.37;1.80;;;;;;;;;;5098094;28;20225;-71
2023/04/13 02:03:05;;;;;;;1.50;1.40;;;;;;;;;;5097733;28;20610;-71
2023/04/13 02:05:35;;;;;;;3.97;1.30;;;;;;;;;;5097754;28;20269;-71
2023/04/13 02:08:04;;;;;;;2.00;1.17;;;;;;;;;;5098070;28;20288;-71
2023/04/13 02:10:33;;;;;;;1.73;0.80;;;;;;;;;;5097828;28;20230;-71
2023/04/13 02:13:02;;;;;;;3.93;1.80;;;;;;;;;;5097813;28;20225;-71
2023/04/13 02:15:34;;;;;;;3.60;1.43;;;;;;;;;;5098114;28;20241;-70
2023/04/13 02:18:02;;;;;;;1.73;1.33;;;;;;;;;;5097580;28;20571;-71
2023/04/13 02:20:32;;;;;;;1.20;1.10;;;;;;;;;;5097309;28;20309;-70
2023/04/13 02:23:00;;;;;;;4.27;1.30;;;;;;;;;;5099864;28;20544;-71
2023/04/13 02:25:28;;;;;;;1.10;1.00;;;;;;;;;;5102076;28;20208;-71
2023/04/13 02:27:56;;;;;;;3.40;1.27;;;;;;;;;;5101619;28;20632;-71
2023/04/13 02:30:24;;;;;;;4.60;1.10;;;;;;;;;;5101661;28;20235;-70
2023/04/13 02:32:54;;;;;;;2.43;0.97;;;;;;;;;;5101711;28;20226;-70
2023/04/13 02:35:24;;;;;;;1.90;1.07;;;;;;;;;;5101649;28;20254;-70
2023/04/13 02:37:52;;;;;;;1.07;0.77;;;;;;;;;;5101755;28;20212;-70
2023/04/13 02:40:20;;;;;;;1.93;1.00;;;;;;;;;;5101373;28;20591;-70
2023/04/13 02:42:48;;;;;;;3.90;1.17;;;;;;;;;;5099476;28;20206;-70
2023/04/13 02:45:17;;;;;;;2.07;1.03;;;;;;;;;;5101433;28;20205;-70
2023/04/13 02:47:45;;;;;;;2.93;0.60;;;;;;;;;;5101436;28;20229;-71
2023/04/13 02:50:14;;;;;;;2.50;0.73;;;;;;;;;;5101447;28;20229;-71
2023/04/13 02:52:42;;;;;;;1.57;0.87;;;;;;;;;;5101437;28;20259;-71
2023/04/13 02:55:10;;;;;;;3.50;1.20;;;;;;;;;;5101507;28;20206;-70
2023/04/13 02:57:41;;;;;;;4.17;1.23;;;;;;;;;;5101251;28;20209;-70
2023/04/13 03:00:10;;;;;;;1.60;1.00;;;;;;;;;;5101364;28;20225;-71
2023/04/13 03:02:38;;;;;;;5.10;1.20;;;;;;;;;;5100918;28;20202;-70
2023/04/13 03:05:06;;;;;;;3.83;1.03;;;;;;;;;;5100729;28;20214;-71
2023/04/13 03:07:36;;;;;;;2.10;1.20;;;;;;;;;;5101401;28;20213;-71
2023/04/13 03:10:04;;;;;;;2.00;0.90;;;;;;;;;;5101024;28;20225;-70
2023/04/13 03:12:32;;;;;;;2.23;1.00;;;;;;;;;;5101143;28;20272;-70
2023/04/13 03:15:02;;;;;;;1.63;1.00;;;;;;;;;;5100415;28;20269;-70
2023/04/13 03:17:30;;;;;;;3.23;0.83;;;;;;;;;;5099767;28;20254;-70
2023/04/13 03:19:58;;;;;;;1.37;0.90;;;;;;;;;;5099078;28;20696;-70
2023/04/13 03:22:29;;;;;;;4.07;1.00;;;;;;;;;;5099549;28;20740;-70
2023/04/13 03:24:58;;;;;;;3.30;0.97;;;;;;;;;;5099667;28;20239;-70
2023/04/13 03:27:26;;;;;;;1.70;0.87;;;;;;;;;;5099414;28;20575;-71
2023/04/13 03:29:54;;;;;;;2.03;0.87;;;;;;;;;;5099288;28;20762;-70
2023/04/13 03:32:24;;;;;;;2.30;1.10;;;;;;;;;;5099281;28;20233;-71
2023/04/13 03:34:52;;;;;;;3.07;1.00;;;;;;;;;;5098723;28;20668;-70
2023/04/13 03:37:20;;;;;;;4.23;1.23;;;;;;;;;;5099324;28;20237;-70
2023/04/13 03:39:48;;;;;;;4.53;1.03;;;;;;;;;;5099290;28;20252;-71
2023/04/13 03:42:17;;;;;;;2.50;1.03;;;;;;;;;;5096833;28;20211;-70
2023/04/13 03:44:45;;;;;;;1.83;1.10;;;;;;;;;;5099477;28;20212;-70
2023/04/13 03:47:13;;;;;;;3.57;1.00;;;;;;;;;;5099057;28;20284;-70
2023/04/13 03:49:41;;;;;;;1.10;1.00;;;;;;;;;;5099009;28;20230;-70
2023/04/13 03:52:09;;;;;;;4.13;1.20;;;;;;;;;;5099284;28;20239;-70
2023/04/13 03:54:38;;;;;;;5.90;1.27;;;;;;;;;;5092049;28;20233;-70
2023/04/13 03:57:07;;;;;;;3.00;1.30;;;;;;;;;;5097383;28;20215;-70
2023/04/13 03:59:36;;;;;;;4.03;1.30;;;;;;;;;;5099279;28;20222;-70
2023/04/13 04:02:04;;;;;;;6.07;2.20;;;;;;;;;;5098750;28;20236;-70
2023/04/13 04:04:32;;;;;;;5.10;2.57;;;;;;;;;;5098957;28;20232;-70
2023/04/13 04:07:00;;;;;;;2.93;1.57;;;;;;;;;;5098787;28;20205;-70
2023/04/13 04:09:28;;;;;;;2.90;1.10;;;;;;;;;;5098974;28;20232;-70
2023/04/13 04:11:59;;;;;;;2.20;1.40;;;;;;;;;;5098929;28;20205;-70
2023/04/13 04:14:27;;;;;;;2.37;1.03;;;;;;;;;;5050522;28;1365187;-70
2023/04/13 04:16:58;;;;;;;3.13;1.00;;;;;;;;;;5099576;28;20212;-70
2023/04/13 04:19:28;;;;;;;2.13;1.10;;;;;;;;;;5099610;28;20236;-70
2023/04/13 04:21:56;;;;;;;3.13;1.13;;;;;;;;;;5099969;28;20237;-70
2023/04/13 04:24:26;;;;;;;3.87;1.30;;;;;;;;;;5099886;28;20360;-72
2023/04/13 04:26:54;;;;;;;3.37;1.20;;;;;;;;;;5099797;28;20236;-72
2023/04/13 04:29:32;;;;;;;4.00;1.17;;;;;;;;;;5099509;28;20684;-72
2023/04/13 04:32:03;;;;;;;2.37;1.23;;;;;;;;;;5099305;28;20200;-72
2023/04/13 04:34:31;;;;;;;3.40;1.20;;;;;;;;;;5099210;28;20237;-72
2023/04/13 04:37:02;;;;;;;3.97;1.30;;;;;;;;;;5100002;28;20292;-70
2023/04/13 04:39:43;;;;;;;2.70;1.40;;;;;;;;;;5099343;28;20213;-70
2023/04/13 04:42:11;;;;;;;1.33;1.23;;;;;;;;;;5097661;28;20216;-70
2023/04/13 04:44:39;;;;;;;2.17;1.27;;;;;;;;;;5098256;28;20269;-70
2023/04/13 04:47:08;;;;;;;1.20;1.03;;;;;;;;;;5099017;28;20232;-70
2023/04/13 04:49:36;;;;;;;5.13;1.40;;;;;;;;;;5099035;28;20320;-70
2023/04/13 04:52:04;;;;;;;1.57;1.40;;;;;;;;;;5099213;28;20209;-70
2023/04/13 04:54:32;;;;;;;2.80;1.47;;;;;;;;;;5099246;28;20312;-70
2023/04/13 04:57:00;;;;;;;4.93;1.60;;;;;;;;;;5099061;28;20213;-70
2023/04/13 04:59:29;;;;;;;2.17;1.30;;;;;;;;;;5099852;28;20237;-70
2023/04/13 05:01:57;;;;;;;3.37;1.43;;;;;;;;;;5098948;28;20255;-71
2023/04/13 05:04:26;;;;;;;4.77;2.00;;;;;;;;;;5099127;28;20213;-72
2023/04/13 05:06:54;;;;;;;2.97;1.63;;;;;;;;;;5098902;28;20233;-70
2023/04/13 05:09:22;;;;;;;4.03;1.43;;;;;;;;;;5099047;28;20229;-70
2023/04/13 05:11:50;;;;;;;4.77;1.40;;;;;;;;;;5098851;28;20237;-71
2023/04/13 05:14:18;;;;;;;3.93;1.50;;;;;;;;;;5098816;28;20228;-72
2023/04/13 05:16:46;;;;;;;3.30;1.57;;;;;;;;;;5098094;28;20746;-70
2023/04/13 05:19:14;;;;;;;3.50;1.53;;;;;;;;;;5098242;28;20722;-70
2023/04/13 05:21:43;;;;;;;5.83;1.70;;;;;;;;;;5098692;28;20205;-70
2023/04/13 05:24:11;;;;;;;2.63;1.67;;;;;;;;;;5098786;28;20245;-70
2023/04/13 05:26:39;;;;;;;7.23;1.63;;;;;;;;;;5098455;28;20237;-70
2023/04/13 05:29:08;;;;;;;4.67;1.90;;;;;;;;;;5098544;28;20212;-70
2023/04/13 05:31:36;;;;;;;8.37;1.97;;;;;;;;;;5098468;28;20217;-70
2023/04/13 05:34:04;;;;;;;6.43;2.63;;;;;;;;;;5098041;28;20225;-70
2023/04/13 05:36:32;;;;;;;4.80;1.93;;;;;;;;;;5098452;28;20297;-70
2023/04/13 05:39:02;;;;;;;9.23;2.70;;;;;;;;;;5098399;28;20241;-70
2023/04/13 05:41:30;;;;;;;5.77;2.63;;;;;;;;;;5087040;28;20197;-70
2023/04/13 05:43:58;;;;;;;6.03;2.67;;;;;;;;;;5098025;28;20212;-69
2023/04/13 05:46:26;;;;;;;11.43;3.60;;;;;;;;;;5094722;28;20235;-70
2023/04/13 05:48:55;;;;;;;5.67;2.90;;;;;;;;;;5097500;28;20556;-70
2023/04/13 05:51:29;;;;;;;6.93;3.33;;;;;;;;;;5097846;28;20549;-70
2023/04/13 05:53:59;;;;;;;8.37;3.07;;;;;;;;;;5097865;28;20285;-70
2023/04/13 05:56:28;;;;;;;10.97;3.37;;;;;;;;;;5098053;28;20205;-70
2023/04/13 05:58:59;;;;;;;7.77;3.23;;;;;;;;;;5097860;28;20202;-70
2023/04/13 06:01:28;;;;;;;8.80;2.80;;;;;;;;;;5097778;28;20744;-70
2023/04/13 06:03:56;;;;;;;11.33;3.20;;;;;;;;;;5097456;28;20568;-70
2023/04/13 06:06:25;;;;;;;8.53;2.80;;;;;;;;;;5097431;28;20768;-70
2023/04/13 06:08:54;;;;;;;5.57;2.77;;;;;;;;;;5097535;28;20288;-70
2023/04/13 06:11:23;;;;;;;5.17;2.27;;;;;;;;;;5097854;28;20267;-69
2023/04/13 06:13:52;;;;;;;4.77;2.73;;;;;;;;;;5097616;28;20263;-70
2023/04/13 06:16:22;;;;;;;9.00;2.90;;;;;;;;;;5097454;28;20237;-70
2023/04/13 06:18:50;;;;;;;6.70;2.50;;;;;;;;;;5097622;28;20288;-70
2023/04/13 06:21:18;;;;;;;7.33;2.30;;;;;;;;;;5084195;28;20258;-70
2023/04/13 06:23:46;;;;;;;2.97;2.07;;;;;;;;;;5097621;28;20202;-70
2023/04/13 06:26:15;;;;;;;5.43;1.83;;;;;;;;;;5097882;28;20205;-70
2023/04/13 06:28:43;;;;;;;8.30;2.10;;;;;;;;;;5097775;28;20635;-70
2023/04/13 06:31:13;;;;;;;4.83;1.77;;;;;;;;;;5097298;28;20233;-70
2023/04/13 06:33:42;;;;;;;4.83;1.80;;;;;;;;;;5097193;28;20279;-70
2023/04/13 06:36:10;;;;;;;3.17;1.73;;;;;;;;;;5097838;28;20240;-70
2023/04/13 06:38:38;;;;;;;7.90;1.20;;;;;;;;;;5097571;28;20664;-70
2023/04/13 06:41:06;;;;;;;9.27;1.63;;;;;;;;;;5095194;28;20256;-70
2023/04/13 06:43:34;;;;;;;2.60;1.30;;;;;;;;;;5097467;28;20684;-70
2023/04/13 06:46:03;;;;;;;5.77;1.60;;;;;;;;;;5097333;28;20248;-70
2023/04/13 06:48:33;;;;;;;10.83;1.97;;;;;;;;;;5097466;28;20205;-70
2023/04/13 06:51:01;;;;;;;5.30;1.80;;;;;;;;;;5097592;28;20229;-70
2023/04/13 06:53:29;;;;;;;4.77;1.40;;;;;;;;;;5097313;28;20262;-70
2023/04/13 06:55:58;;;;;;;4.43;1.13;;;;;;;;;;5097581;28;20288;-70
2023/04/13 06:58:26;;;;;;;10.57;1.30;;;;;;;;;;5097667;28;20248;-70
2023/04/13 07:00:54;;;;;;;5.73;1.50;;;;;;;;;;5097398;28;20236;-70
2023/04/13 07:03:22;;;;;;;9.77;1.57;;;;;;;;;;5097574;28;20288;-70
2023/04/13 07:05:51;;;;;;;7.63;1.50;;;;;;;;;;5097346;28;20212;-70
2023/04/13 07:08:19;;;;;;;3.20;1.57;;;;;;;;;;5098499;28;20206;-70
2023/04/13 07:10:52;;;;;;;2.33;1.23;;;;;;;;;;5101154;28;20229;-70
2023/04/13 07:13:20;;;;;;;3.33;1.00;;;;;;;;;;5101093;28;20216;-70
2023/04/13 07:15:48;;;;;;;4.27;1.30;;;;;;;;;;5100547;28;20267;-70
2023/04/13 07:18:16;;;;;;;4.77;1.70;;;;;;;;;;5100643;28;20576;-70
2023/04/13 07:20:44;;;;;;;1.77;1.20;;;;;;;;;;5100473;28;20723;-70
2023/04/13 07:23:13;;;;;;;3.90;1.10;;;;;;;;;;5100922;28;20228;-70
2023/04/13 07:25:41;;;;;;;3.73;1.37;;;;;;;;;;5100954;28;20202;-70
2023/04/13 07:28:09;;;;;;;4.10;1.67;;;;;;;;;;5100705;28;20705;-70
2023/04/13 07:30:37;;;;;;;7.10;1.87;;;;;;;;;;5100920;28;20231;-70
2023/04/13 07:33:05;;;;;;;6.23;1.83;;;;;;;;;;5100438;28;20216;-70
2023/04/13 07:35:33;;;;;;;3.97;1.23;;;;;;;;;;5100471;28;20240;-70
2023/04/13 07:38:01;;;;;;;4.03;1.17;;;;;;;;;;5100807;28;20277;-70
2023/04/13 07:40:31;;;;;;;1.97;1.30;;;;;;;;;;5100102;28;20256;-71
2023/04/13 07:42:59;;;;;;;4.03;0.93;;;;;;;;;;5099279;28;20208;-70
2023/04/13 07:45:29;;;;;;;3.90;1.53;;;;;;;;;;5100653;28;20201;-70
2023/04/13 07:47:57;;;;;;;2.53;1.50;;;;;;;;;;5100419;28;20212;-72
2023/04/13 07:50:25;;;;;;;5.17;1.30;;;;;;;;;;5100165;28;20316;-71
2023/04/13 07:52:55;;;;;;;5.87;2.17;;;;;;;;;;5100303;28;20560;-71
2023/04/13 07:55:23;;;;;;;4.67;1.27;;;;;;;;;;5099886;28;20231;-70
2023/04/13 07:57:52;;;;;;;5.90;1.43;;;;;;;;;;5100063;28;20251;-71
2023/04/13 08:00:21;;;;;;;4.53;1.30;;;;;;;;;;5100156;28;20316;-71
2023/04/13 08:02:50;;;;;;;6.73;1.53;;;;;;;;;;5099881;28;20209;-71
2023/04/13 08:05:18;;;;;;;4.77;1.40;;;;;;;;;;5099825;28;20202;-71
2023/04/13 08:07:47;;;;;;;3.50;1.27;;;;;;;;;;5100160;28;20293;-71
2023/04/13 08:10:16;;;;;;;5.43;1.47;;;;;;;;;;5099680;28;20224;-71
2023/04/13 08:12:44;;;;;;;3.60;1.57;;;;;;;;;;5100061;28;20244;-71
2023/04/13 08:15:13;;;;;;;4.47;1.50;;;;;;;;;;5099582;28;20239;-71
2023/04/13 08:17:41;;;;;;;4.13;1.30;;;;;;;;;;5099916;28;20314;-71
2023/04/13 08:20:10;;;;;;;4.00;1.50;;;;;;;;;;5097954;28;20255;-70
2023/04/13 08:22:38;;;;;;;7.07;1.57;;;;;;;;;;5099628;28;20696;-71
2023/04/13 08:25:06;;;;;;;2.23;1.30;;;;;;;;;;5099470;28;20610;-71
2023/04/13 08:27:34;;;;;;;6.27;1.30;;;;;;;;;;5099692;28;20209;-71
2023/04/13 08:30:04;;;;;;;5.97;1.53;;;;;;;;;;5099433;28;20225;-71
2023/04/13 08:32:33;;;;;;;5.07;1.43;;;;;;;;;;5099238;28;20259;-70
2023/04/13 08:35:06;;;;;;;5.13;1.43;;;;;;;;;;5099059;28;20650;-70
2023/04/13 08:37:34;;;;;;;6.93;1.90;;;;;;;;;;5099235;28;20241;-70
2023/04/13 08:40:04;;;;;;;3.47;1.40;;;;;;;;;;5099050;28;20719;-71
2023/04/13 08:42:33;;;;;;;7.33;2.20;;;;;;;;;;5097038;28;20566;-71
2023/04/13 08:45:01;;;;;;;2.77;1.10;;;;;;;;;;5099242;28;20208;-69
2023/04/13 08:47:29;;;;;;;5.73;1.60;;;;;;;;;;5098934;28;20237;-70
2023/04/13 08:49:59;;;;;;;3.50;1.13;;;;;;;;;;5098655;28;20230;-70
2023/04/13 08:52:28;;;;;;;4.10;1.43;;;;;;;;;;5099141;28;20210;-71
2023/04/13 08:54:57;;;;;;;7.00;2.77;;;;;;;;;;5099150;28;20233;-69
2023/04/13 08:57:26;;;;;;;5.27;1.67;;;;;;;;;;5099049;28;20213;-70
2023/04/13 08:59:56;;;;;;;5.77;1.83;;;;;;;;;;5099119;28;20330;-70
2023/04/13 09:02:27;;;;;;;7.27;1.70;;;;;;;;;;5098768;28;20212;-69
2023/04/13 09:04:59;;;;;;;3.40;1.90;;;;;;;;;;5098789;28;20216;-70
2023/04/13 09:07:33;;;;;;;6.43;1.60;;;;;;;;;;5098942;28;20248;-70
2023/04/13 09:10:01;;;;;;;5.87;1.70;;;;;;;;;;5098793;28;20233;-71
2023/04/13 09:12:31;;;;;;;5.87;1.27;;;;;;;;;;5098897;28;20211;-71
2023/04/13 09:14:59;;;;;;;5.87;2.10;;;;;;;;;;5098379;28;20265;-71
2023/04/13 09:17:28;;;;;;;3.07;1.23;;;;;;;;;;5098407;28;20263;-71
2023/04/13 09:19:58;;;;;;;5.37;2.13;;;;;;;;;;5098358;28;20230;-71
2023/04/13 09:22:28;;;;;;;6.30;1.80;;;;;;;;;;5098498;28;20209;-69
2023/04/13 09:24:58;;;;;;;7.03;1.30;;;;;;;;;;5099210;28;20201;-71
2023/04/13 09:27:26;;;;;;;5.07;1.40;;;;;;;;;;5098695;28;20292;-70
2023/04/13 09:29:55;;;;;;;6.60;1.47;;;;;;;;;;5098120;28;20743;-70
2023/04/13 09:32:24;;;;;;;5.67;1.37;;;;;;;;;;5097927;28;20630;-70
2023/04/13 09:34:59;;;;;;;3.43;1.27;;;;;;;;;;5097930;28;20202;-71
2023/04/13 09:37:31;;;;;;;3.70;1.53;;;;;;;;;;5098195;28;20684;-71
2023/04/13 09:40:09;;;;;;;6.93;1.80;;;;;;;;;;5098486;28;20221;-70
2023/04/13 09:42:37;;;;;;;6.63;1.93;;;;;;;;;;5096500;28;20224;-71
2023/04/13 09:45:06;;;;;;;8.80;1.47;;;;;;;;;;5098466;28;20205;-71
2023/04/13 09:47:35;;;;;;;3.90;1.40;;;;;;;;;;5097960;28;20214;-71
2023/04/13 09:50:04;;;;;;;2.87;1.83;;;;;;;;;;5097697;28;20253;-71
2023/04/13 09:52:33;;;;;;;6.30;1.60;;;;;;;;;;5098375;28;20215;-71
2023/04/13 09:55:01;;;;;;;7.47;3.00;;;;;;;;;;5097815;28;20731;-70
2023/04/13 09:57:31;;;;;;;5.73;2.00;;;;;;;;;;5097832;28;20237;-70
2023/04/13 10:00:00;;;;;;;6.27;1.50;;;;;;;;;;5097796;28;20225;-72
2023/04/13 10:02:28;;;;;;;6.30;1.37;;;;;;;;;;5097762;28;20291;-72
2023/04/13 10:04:57;;;;;;;3.70;1.20;;;;;;;;;;5097677;28;20206;-72
2023/04/13 10:07:28;;;;;;;3.13;1.00;;;;;;;;;;5097806;28;20209;-72
2023/04/13 10:09:58;;;;;;;3.17;1.20;;;;;;;;;;5097984;28;20221;-72
2023/04/13 10:12:27;;;;;;;4.53;1.50;;;;;;;;;;5097937;28;20240;-72
2023/04/13 10:14:58;;;;;;;3.13;1.10;;;;;;;;;;5097545;28;20660;-72
2023/04/13 10:17:39;;;;;;;4.73;1.50;;;;;;;;;;5097875;28;20282;-73
2023/04/13 10:20:10;;;;;;;4.00;1.33;;;;;;;;;;5097540;28;20251;-72
2023/04/13 10:22:38;;;;;;;8.87;1.77;;;;;;;;;;5097783;28;20595;-72
2023/04/13 10:25:07;;;;;;;6.77;1.37;;;;;;;;;;5097683;28;20233;-72
2023/04/13 10:27:39;;;;;;;9.63;1.67;;;;;;;;;;5097944;28;20564;-72
2023/04/13 10:30:16;;;;;;;3.50;1.60;;;;;;;;;;5097981;28;20260;-72
2023/04/13 10:32:44;;;;;;;7.07;1.27;;;;;;;;;;5097701;28;20201;-71
2023/04/13 10:35:14;;;;;;;7.33;1.57;;;;;;;;;;5097674;28;20232;-71
2023/04/13 10:37:44;;;;;;;3.83;1.30;;;;;;;;;;5097522;28;20618;-71
2023/04/13 10:40:15;;;;;;;4.60;1.33;;;;;;;;;;5097534;28;20571;-71
2023/04/13 10:42:45;;;;;;;3.20;0.93;;;;;;;;;;5096104;28;20209;-71
2023/04/13 10:45:22;;;;;;;7.50;2.00;;;;;;;;;;5101766;28;20213;-71
2023/04/13 10:47:51;;;;;;;6.23;1.70;;;;;;;;;;5101658;28;20315;-72
2023/04/13 10:50:21;;;;;;;7.03;2.00;;;;;;;;;;5101095;28;20600;-71
2023/04/13 10:52:56;;;;;;;5.90;2.00;;;;;;;;;;5101585;28;20262;-72
2023/04/13 10:55:24;;;;;;;3.17;1.57;;;;;;;;;;5101159;28;20213;-72
2023/04/13 10:57:53;;;;;;;6.10;1.70;;;;;;;;;;5101180;28;20232;-72
2023/04/13 11:00:23;;;;;;;6.70;1.60;;;;;;;;;;5101342;28;20268;-72
2023/04/13 11:03:11;;;;;;;3.10;1.50;;;;;;;;;;5101233;28;20259;-72
2023/04/13 11:05:39;;;;;;;4.57;1.20;;;;;;;;;;5101263;28;20229;-72
2023/04/13 11:08:07;;;;;;;4.93;1.20;;;;;;;;;;5101467;28;20201;-72
2023/04/13 11:10:36;;;;;;;5.23;1.93;;;;;;;;;;5101723;28;20229;-72
2023/04/13 11:13:04;;;;;;;6.00;1.63;;;;;;;;;;5101597;28;20284;-72
2023/04/13 11:15:33;;;;;;;6.60;1.87;;;;;;;;;;5100964;28;20241;-71
2023/04/13 11:18:02;;;;;;;6.53;1.50;;;;;;;;;;5100960;28;20334;-71
2023/04/13 11:20:32;;;;;;;1.70;1.07;;;;;;;;;;5100916;28;20257;-71
2023/04/13 11:23:02;;;;;;;5.23;1.57;;;;;;;;;;5101045;28;20210;-71
2023/04/13 11:25:30;;;;;;;5.13;1.53;;;;;;;;;;5101239;28;20213;-71
2023/04/13 11:27:59;;;;;;;2.93;1.53;;;;;;;;;;5100768;28;20704;-72
2023/04/13 11:30:27;;;;;;;4.67;1.50;;;;;;;;;;5101232;28;20229;-72
2023/04/13 11:32:57;;;;;;;3.67;0.97;;;;;;;;;;5100460;28;20210;-72
2023/04/13 11:35:25;;;;;;;7.83;2.00;;;;;;;;;;5100710;28;20237;-72
2023/04/13 11:37:55;;;;;;;6.37;1.53;;;;;;;;;;5100409;28;20369;-72
2023/04/13 11:40:26;;;;;;;5.97;1.73;;;;;;;;;;5100414;28;20221;-72
2023/04/13 11:42:55;;;;;;;7.83;1.40;;;;;;;;;;5099228;28;20297;-72
2023/04/13 11:45:27;;;;;;;3.73;1.30;;;;;;;;;;5100344;28;20677;-72
2023/04/13 11:47:57;;;;;;;3.17;1.37;;;;;;;;;;5100174;28;20205;-72
2023/04/13 11:50:26;;;;;;;6.13;1.37;;;;;;;;;;5099835;28;20684;-72
2023/04/13 11:52:55;;;;;;;5.83;2.33;;;;;;;;;;5100305;28;20292;-72
2023/04/13 11:55:23;;;;;;;4.33;1.80;;;;;;;;;;5100022;28;20202;-72
2023/04/13 11:57:52;;;;;;;5.70;1.30;;;;;;;;;;5100242;28;20257;-72
2023/04/13 12:00:22;;;;;;;5.53;1.57;;;;;;;;;;5099941;28;20723;-72
2023/04/13 12:02:52;;;;;;;6.53;1.27;;;;;;;;;;5100099;28;20205;-72
2023/04/13 12:05:32;;;;;;;4.13;1.30;;;;;;;;;;5100099;28;20215;-72
2023/04/13 12:08:01;;;;;;;6.93;1.73;;;;;;;;;;5100289;28;20205;-72
2023/04/13 12:10:33;;;;;;;6.73;1.27;;;;;;;;;;5099953;28;20240;-73
2023/04/13 12:13:08;;;;;;;5.90;1.50;;;;;;;;;;5100114;28;20210;-73
2023/04/13 12:15:55;;;;;;;6.60;1.87;;;;;;;;;;5099597;28;20242;-73
2023/04/13 12:18:25;;;;;;;6.30;1.30;;;;;;;;;;5099660;28;20229;-73
2023/04/13 12:21:05;;;;;;;5.77;1.30;;;;;;;;;;5099691;28;20651;-73
2023/04/13 12:23:33;;;;;;;5.60;1.63;;;;;;;;;;5099806;28;20201;-72
2023/04/13 12:26:04;;;;;;;5.43;1.20;;;;;;;;;;5099919;28;20215;-73
2023/04/13 12:28:54;;;;;;;2.80;1.30;;;;;;;;;;5099950;28;20262;-72
2023/04/13 12:31:22;;;;;;;3.77;1.33;;;;;;;;;;5099568;28;20230;-72
2023/04/13 12:33:51;;;;;;;3.27;1.33;;;;;;;;;;5099276;28;20665;-72
2023/04/13 12:36:20;;;;;;;3.00;1.23;;;;;;;;;;5099379;28;20213;-72
2023/04/13 12:38:48;;;;;;;6.17;1.70;;;;;;;;;;5099534;28;20283;-72
2023/04/13 12:41:16;;;;;;;3.57;1.40;;;;;;;;;;5097821;28;20225;-73
2023/04/13 12:43:44;;;;;;;3.00;1.10;;;;;;;;;;5099323;28;20571;-72
2023/04/13 12:46:12;;;;;;;4.20;2.03;;;;;;;;;;5099329;28;20214;-73
2023/04/13 12:48:40;;;;;;;4.00;1.57;;;;;;;;;;5098893;28;20233;-72
2023/04/13 12:51:08;;;;;;;4.63;1.10;;;;;;;;;;5099085;28;20253;-72
2023/04/13 12:53:38;;;;;;;2.83;0.90;;;;;;;;;;5099051;28;20692;-72
2023/04/13 12:56:06;;;;;;;5.60;1.33;;;;;;;;;;5099240;28;20205;-72
2023/04/13 12:58:34;;;;;;;3.97;1.40;;;;;;;;;;5099057;28;20312;-72
2023/04/13 13:01:02;;;;;;;3.80;0.83;;;;;;;;;;5099004;28;20232;-72
2023/04/13 13:03:30;;;;;;;3.27;1.67;;;;;;;;;;5098889;28;20241;-73
2023/04/13 13:05:59;;;;;;;4.73;1.50;;;;;;;;;;5098425;28;20210;-73
2023/04/13 13:08:26;;;;;;;4.43;1.13;;;;;;;;;;5098899;28;20214;-73
2023/04/13 13:10:57;;;;;;;3.10;0.83;;;;;;;;;;5098652;28;20230;-71
2023/04/13 13:13:25;;;;;;;5.23;0.97;;;;;;;;;;5099163;28;20248;-72
2023/04/13 13:15:52;;;;;;;6.47;1.37;;;;;;;;;;5098388;28;20241;-72
2023/04/13 13:18:20;;;;;;;11.57;1.40;;;;;;;;;;5098311;28;20808;-71
2023/04/13 13:20:52;;;;;;;3.53;1.33;;;;;;;;;;5098631;28;20234;-71
2023/04/13 13:23:20;;;;;;;3.27;1.40;;;;;;;;;;5098464;28;20308;-72
2023/04/13 13:25:49;;;;;;;3.47;1.60;;;;;;;;;;5098430;28;20618;-72
2023/04/13 13:28:38;;;;;;;7.60;1.47;;;;;;;;;;5098364;28;20577;-71
2023/04/13 13:31:07;;;;;;;3.70;1.20;;;;;;;;;;5098147;28;20586;-72
2023/04/13 13:33:35;;;;;;;5.03;1.23;;;;;;;;;;5098081;28;20216;-71
2023/04/13 13:36:03;;;;;;;1.20;1.10;;;;;;;;;;5098236;28;20209;-72
2023/04/13 13:38:31;;;;;;;4.53;1.00;;;;;;;;;;5098262;28;20225;-72
2023/04/13 13:41:01;;;;;;;0.93;0.80;;;;;;;;;;5095469;28;20631;-72
2023/04/13 13:43:29;;;;;;;4.90;0.77;;;;;;;;;;5098170;28;20612;-72
2023/04/13 13:45:58;;;;;;;1.53;0.97;;;;;;;;;;5097969;28;20213;-72
2023/04/13 13:48:28;;;;;;;1.30;0.60;;;;;;;;;;5097833;28;20207;-72
2023/04/13 13:50:56;;;;;;;0.60;0.60;;;;;;;;;;5097939;28;20723;-71
2023/04/13 13:53:24;;;;;;;1.07;0.60;;;;;;;;;;5098156;28;20206;-72
2023/04/13 13:55:52;;;;;;;0.83;0.67;;;;;;;;;;5098044;28;20229;-71
2023/04/13 13:58:20;;;;;;;3.50;0.87;;;;;;;;;;5098349;28;20267;-71
2023/04/13 14:00:49;;;;;;;2.30;0.60;;;;;;;;;;5097827;28;20268;-72
2023/04/13 14:03:18;;;;;;;1.73;1.23;;;;;;;;;;5098033;28;20277;-71
2023/04/13 14:05:46;;;;;;;1.70;0.90;;;;;;;;;;5098118;28;20213;-70
2023/04/13 14:08:14;;;;;;;2.33;0.80;;;;;;;;;;5098520;28;20235;-71
2023/04/13 14:10:47;;;;;;;1.20;0.87;;;;;;;;;;5097714;28;20603;-71
2023/04/13 14:13:15;;;;;;;3.10;1.00;;;;;;;;;;5097998;28;20209;-70
2023/04/13 14:15:43;;;;;;;3.87;0.80;;;;;;;;;;5097620;28;20711;-70
2023/04/13 14:18:11;;;;;;;3.33;1.20;;;;;;;;;;5099892;28;20233;-71
2023/04/13 14:20:42;;;;;;;2.70;1.00;;;;;;;;;;5102189;28;20228;-71
2023/04/13 14:23:10;;;;;;;2.10;1.00;;;;;;;;;;5102181;28;20294;-71
2023/04/13 14:25:39;;;;;;;1.03;0.70;;;;;;;;;;5102221;28;20202;-71
2023/04/13 14:28:08;;;;;;;2.93;0.90;;;;;;;;;;5101793;28;20205;-70
2023/04/13 14:30:36;;;;;;;1.47;0.70;;;;;;;;;;5101756;28;20229;-70
2023/04/13 14:33:04;;;;;;;0.60;0.60;;;;;;;;;;5101662;28;20210;-71
2023/04/13 14:35:32;;;;;;;0.73;0.73;;;;;;;;;;5102098;28;20528;-70
2023/04/13 14:38:02;;;;;;;2.93;0.67;;;;;;;;;;5101559;28;20558;-70
2023/04/13 14:40:30;;;;;;;0.90;0.80;;;;;;;;;;5101303;28;20225;-70
2023/04/13 14:42:58;;;;;;;1.90;0.70;;;;;;;;;;5100498;28;20291;-71
2023/04/13 14:45:26;;;;;;;1.30;0.77;;;;;;;;;;5101809;28;20233;-70
2023/04/13 14:47:54;;;;;;;1.90;0.80;;;;;;;;;;5101621;28;20289;-72
2023/04/13 14:50:23;;;;;;;1.53;0.73;;;;;;;;;;5101140;28;20693;-71
2023/04/13 14:52:51;;;;;;;2.47;0.60;;;;;;;;;;5101644;28;20236;-73
2023/04/13 14:55:21;;;;;;;2.40;0.83;;;;;;;;;;5101567;28;20239;-72